Time;durP1;ratioP1;P1;durP2;ratioP2;P2;SDS_P1;SDS_P2;PMS_P1;PMS_P2;Temp;Humidity;BMP_temperature;BMP_pressure;BME280_temperature;BME280_humidity;BME280_pressure;Samples;Min_cycle;Max_cycle;Signal;HPM_P1;HPM_P2
2024/03/01 00:02:21;;;;;;;43.88;29.27;;;;;;;;;;10063811;28;20042;-83
2024/03/01 00:07:16;;;;;;;55.80;30.83;;;;;;;;;;10063820;28;20057;-83
2024/03/01 00:12:10;;;;;;;48.47;30.50;;;;;;;;;;10065135;28;20053;-84
2024/03/01 00:17:05;;;;;;;39.85;30.55;;;;;;;;;;10064004;28;20452;-83
2024/03/01 00:22:00;;;;;;;53.15;34.20;;;;;;;;;;10064561;28;20064;-84
2024/03/01 00:26:54;;;;;;;61.40;33.42;;;;;;;;;;10061501;28;20045;-85
2024/03/01 00:31:47;;;;;;;57.65;31.08;;;;;;;;;;10063694;28;20049;-84
2024/03/01 00:36:42;;;;;;;38.20;29.25;;;;;;;;;;10065746;28;20084;-86
2024/03/01 00:41:36;;;;;;;52.70;31.50;;;;;;;;;;10053885;28;20123;-85
2024/03/01 00:46:29;;;;;;;50.42;29.60;;;;;;;;;;10063442;28;20742;-86
2024/03/01 00:51:25;;;;;;;47.80;30.35;;;;;;;;;;10043275;28;20054;-84
2024/03/01 00:56:19;;;;;;;40.63;27.65;;;;;;;;;;10065263;28;20485;-84
2024/03/01 01:01:13;;;;;;;75.10;32.38;;;;;;;;;;10063588;28;20087;-85
2024/03/01 01:06:09;;;;;;;67.57;33.63;;;;;;;;;;10058555;28;20374;-83
2024/03/01 01:11:04;;;;;;;68.07;33.72;;;;;;;;;;10064322;28;20417;-83
2024/03/01 01:15:58;;;;;;;50.45;30.02;;;;;;;;;;10068612;28;20116;-82
2024/03/01 01:20:52;;;;;;;79.57;33.22;;;;;;;;;;10060230;28;20092;-84
2024/03/01 01:25:46;;;;;;;56.65;32.10;;;;;;;;;;10071619;28;20054;-82
2024/03/01 01:30:40;;;;;;;67.75;36.70;;;;;;;;;;10065840;28;20046;-82
2024/03/01 01:35:35;;;;;;;49.08;30.88;;;;;;;;;;10065727;28;20457;-82
2024/03/01 01:40:30;;;;;;;61.10;30.92;;;;;;;;;;10055152;28;20556;-84
2024/03/01 01:45:25;;;;;;;69.57;31.50;;;;;;;;;;10067217;28;20416;-83
2024/03/01 01:50:19;;;;;;;69.82;32.70;;;;;;;;;;10063399;28;20053;-84
2024/03/01 01:55:13;;;;;;;52.67;34.05;;;;;;;;;;10064078;28;20056;-83
2024/03/01 02:00:07;;;;;;;51.53;31.70;;;;;;;;;;10066721;28;20049;-84
2024/03/01 02:05:06;;;;;;;58.47;33.17;;;;;;;;;;10068216;28;20052;-84
2024/03/01 02:10:01;;;;;;;67.78;35.78;;;;;;;;;;10059779;28;20052;-84
2024/03/01 02:14:55;;;;;;;70.10;33.90;;;;;;;;;;10054579;28;20049;-84
2024/03/01 02:19:49;;;;;;;45.60;31.60;;;;;;;;;;10058897;28;20114;-84
2024/03/01 02:24:44;;;;;;;59.25;32.40;;;;;;;;;;10055460;28;20390;-86
2024/03/01 02:29:38;;;;;;;48.53;32.72;;;;;;;;;;10062839;28;20057;-85
2024/03/01 02:34:33;;;;;;;48.63;32.85;;;;;;;;;;10056227;28;20080;-84
2024/03/01 02:39:27;;;;;;;51.72;31.17;;;;;;;;;;10063790;28;20136;-84
2024/03/01 02:44:21;;;;;;;50.92;32.85;;;;;;;;;;10064626;28;20052;-84
2024/03/01 02:49:15;;;;;;;60.58;33.08;;;;;;;;;;10058999;28;20052;-83
2024/03/01 02:54:10;;;;;;;86.30;34.75;;;;;;;;;;10061681;28;20045;-83
2024/03/01 02:59:04;;;;;;;53.28;32.70;;;;;;;;;;10048796;28;20116;-84
2024/03/01 03:04:00;;;;;;;58.58;33.10;;;;;;;;;;10060862;28;20155;-84
2024/03/01 03:08:56;;;;;;;48.88;31.50;;;;;;;;;;10056917;28;20061;-85
2024/03/01 03:13:51;;;;;;;50.05;33.15;;;;;;;;;;10062304;28;20057;-83
2024/03/01 03:18:45;;;;;;;65.07;33.25;;;;;;;;;;10062798;28;20053;-84
2024/03/01 03:23:39;;;;;;;85.68;34.15;;;;;;;;;;10063531;28;20144;-83
2024/03/01 03:28:34;;;;;;;89.25;34.58;;;;;;;;;;10053248;28;20049;-85
2024/03/01 03:33:28;;;;;;;51.42;32.75;;;;;;;;;;10059213;28;20069;-85
2024/03/01 03:38:22;;;;;;;90.70;36.60;;;;;;;;;;10062461;28;20072;-86
2024/03/01 03:43:16;;;;;;;49.90;30.52;;;;;;;;;;10063516;28;20064;-85
2024/03/01 03:48:10;;;;;;;63.33;34.28;;;;;;;;;;10062507;28;20057;-85
2024/03/01 03:53:05;;;;;;;74.10;34.80;;;;;;;;;;10060285;28;20139;-85
2024/03/01 03:58:00;;;;;;;66.05;34.70;;;;;;;;;;10062948;28;20049;-85
2024/03/01 04:02:54;;;;;;;52.08;29.67;;;;;;;;;;10061474;28;20058;-84
2024/03/01 04:07:48;;;;;;;59.00;31.20;;;;;;;;;;10063009;28;20532;-84
2024/03/01 04:12:42;;;;;;;88.80;35.33;;;;;;;;;;10056300;28;20069;-82
2024/03/01 04:17:36;;;;;;;57.50;32.40;;;;;;;;;;10057464;28;20054;-83
2024/03/01 04:22:31;;;;;;;57.17;33.78;;;;;;;;;;10055987;28;20088;-84
2024/03/01 04:27:25;;;;;;;54.08;32.83;;;;;;;;;;10054190;28;20045;-83
2024/03/01 04:32:19;;;;;;;82.05;36.83;;;;;;;;;;10059733;28;20049;-83
2024/03/01 04:37:14;;;;;;;61.55;34.50;;;;;;;;;;10062718;28;20071;-83
2024/03/01 04:42:08;;;;;;;97.18;37.45;;;;;;;;;;10057256;28;20053;-83
2024/03/01 04:47:02;;;;;;;97.30;37.90;;;;;;;;;;10062260;28;20091;-81
2024/03/01 04:51:57;;;;;;;84.43;37.38;;;;;;;;;;10064784;28;20452;-84
2024/03/01 04:56:52;;;;;;;54.78;33.28;;;;;;;;;;10071043;28;20460;-84
2024/03/01 05:01:46;;;;;;;92.05;37.90;;;;;;;;;;10064059;28;20418;-85
2024/03/01 05:06:40;;;;;;;97.97;36.67;;;;;;;;;;10065475;28;20064;-84
2024/03/01 05:11:35;;;;;;;81.05;35.60;;;;;;;;;;10064417;28;20061;-83
2024/03/01 05:16:30;;;;;;;78.45;36.22;;;;;;;;;;10068045;28;20053;-82
2024/03/01 05:21:24;;;;;;;72.18;36.55;;;;;;;;;;10068162;28;20432;-82
2024/03/01 05:26:18;;;;;;;59.92;35.97;;;;;;;;;;10066931;28;20140;-81
2024/03/01 05:31:11;;;;;;;89.47;36.42;;;;;;;;;;10061939;28;20053;-81
2024/03/01 05:36:17;;;;;;;83.00;37.95;;;;;;;;;;10066554;28;20057;-82
2024/03/01 05:41:10;;;;;;;134.18;39.25;;;;;;;;;;10065575;28;20059;-83
2024/03/01 05:46:15;;;;;;;146.90;39.20;;;;;;;;;;10066589;28;20068;-83
2024/03/01 05:51:11;;;;;;;112.57;37.15;;;;;;;;;;10060329;28;20041;-81
2024/03/01 05:56:17;;;;;;;187.13;43.05;;;;;;;;;;10064630;28;20057;-82
2024/03/01 06:01:12;;;;;;;68.68;35.38;;;;;;;;;;10062269;28;20573;-82
2024/03/01 06:06:08;;;;;;;132.30;37.70;;;;;;;;;;10056156;28;20505;-80
2024/03/01 06:11:04;;;;;;;98.50;35.22;;;;;;;;;;10052939;28;20050;-82
2024/03/01 06:15:57;;;;;;;76.70;30.67;;;;;;;;;;10066760;28;20087;-83
2024/03/01 06:20:51;;;;;;;74.63;30.75;;;;;;;;;;10064628;28;20072;-82
2024/03/01 06:25:44;;;;;;;65.15;32.25;;;;;;;;;;10049811;28;20099;-84
2024/03/01 06:30:38;;;;;;;89.82;31.73;;;;;;;;;;10057919;28;20050;-83
2024/03/01 06:35:34;;;;;;;58.97;28.15;;;;;;;;;;10060368;28;20053;-84
2024/03/01 06:40:28;;;;;;;46.60;27.02;;;;;;;;;;10061231;28;20072;-83
2024/03/01 06:45:22;;;;;;;43.30;27.42;;;;;;;;;;10061950;28;20618;-83
2024/03/01 06:50:17;;;;;;;42.80;29.17;;;;;;;;;;10056118;28;20493;-83
2024/03/01 06:55:11;;;;;;;61.20;30.15;;;;;;;;;;10055746;28;20470;-83
2024/03/01 07:00:11;;;;;;;48.03;31.08;;;;;;;;;;10049035;28;20068;-84
2024/03/01 07:05:06;;;;;;;49.28;29.33;;;;;;;;;;10062493;28;20134;-83
2024/03/01 07:10:00;;;;;;;53.50;29.08;;;;;;;;;;10052359;28;20413;-79
2024/03/01 07:14:54;;;;;;;111.10;33.55;;;;;;;;;;10064100;28;20140;-80
2024/03/01 07:19:48;;;;;;;71.25;31.98;;;;;;;;;;10006245;28;1640552;-81
2024/03/01 07:24:42;;;;;;;61.78;29.65;;;;;;;;;;10065901;28;20123;-81
2024/03/01 07:29:36;;;;;;;61.50;31.60;;;;;;;;;;10065844;28;20053;-78
2024/03/01 07:34:30;;;;;;;41.85;25.58;;;;;;;;;;10065452;28;20045;-78
2024/03/01 07:39:24;;;;;;;46.55;23.80;;;;;;;;;;10058100;28;20064;-77
2024/03/01 07:44:17;;;;;;;29.35;20.38;;;;;;;;;;10064457;28;20107;-78
2024/03/01 07:49:12;;;;;;;32.42;18.50;;;;;;;;;;10054788;28;20556;-77
2024/03/01 07:54:06;;;;;;;20.50;14.40;;;;;;;;;;10063355;28;20057;-78
2024/03/01 07:59:04;;;;;;;30.35;18.48;;;;;;;;;;10058047;28;20057;-83
2024/03/01 08:03:58;;;;;;;20.98;15.23;;;;;;;;;;10053083;28;20096;-83
2024/03/01 08:08:57;;;;;;;32.17;22.20;;;;;;;;;;10056888;28;20474;-83
2024/03/01 08:13:51;;;;;;;25.52;17.90;;;;;;;;;;10057790;28;20053;-89
2024/03/01 08:18:45;;;;;;;25.77;21.35;;;;;;;;;;10039465;28;20057;-88
2024/03/01 08:23:42;;;;;;;32.30;28.52;;;;;;;;;;10057919;28;20501;-79
2024/03/01 08:28:36;;;;;;;21.33;19.10;;;;;;;;;;10064001;28;20107;-79
2024/03/01 08:33:33;;;;;;;33.17;29.65;;;;;;;;;;10063765;28;20493;-80
2024/03/01 08:38:53;;;;;;;34.28;23.40;;;;;;;;;;10055756;28;20054;-79
2024/03/01 08:43:47;;;;;;;24.60;22.05;;;;;;;;;;10058496;28;20501;-78
2024/03/01 08:48:42;;;;;;;25.70;18.90;;;;;;;;;;10061179;28;20049;-78
2024/03/01 08:53:55;;;;;;;20.42;15.07;;;;;;;;;;10061959;28;20060;-78
2024/03/01 08:58:49;;;;;;;20.27;15.70;;;;;;;;;;10054121;28;20042;-80
2024/03/01 09:03:43;;;;;;;28.70;16.80;;;;;;;;;;10061107;28;20050;-78
2024/03/01 09:08:37;;;;;;;32.40;24.25;;;;;;;;;;10058196;28;20095;-79
2024/03/01 09:13:31;;;;;;;28.35;20.83;;;;;;;;;;10063241;28;20111;-78
2024/03/01 09:18:36;;;;;;;22.90;18.63;;;;;;;;;;10063034;28;20132;-78
2024/03/01 09:23:29;;;;;;;25.40;21.33;;;;;;;;;;10036187;28;20066;-78
2024/03/01 09:28:24;;;;;;;31.52;27.38;;;;;;;;;;10062357;28;20061;-76
2024/03/01 09:33:20;;;;;;;31.13;23.33;;;;;;;;;;10050975;28;20054;-76
2024/03/01 09:38:15;;;;;;;41.15;27.17;;;;;;;;;;10067387;28;20053;-77
2024/03/01 09:43:34;;;;;;;46.60;27.55;;;;;;;;;;10067353;28;20145;-81
2024/03/01 09:48:46;;;;;;;;;;;;;;;;;;10057988;28;20456;-81
2024/03/01 09:53:58;;;;;;;35.15;24.20;;;;;;;;;;10070259;28;20404;-80
2024/03/01 09:59:15;;;;;;;49.45;26.90;;;;;;;;;;10060396;28;20073;-80
2024/03/01 10:04:33;;;;;;;37.47;24.10;;;;;;;;;;10069125;28;20085;-81
2024/03/01 10:09:48;;;;;;;46.67;23.55;;;;;;;;;;10058244;28;20057;-80
2024/03/01 10:14:48;;;;;;;46.65;24.73;;;;;;;;;;10067328;28;20115;-80
2024/03/01 10:19:50;;;;;;;42.75;27.52;;;;;;;;;;10068581;28;20055;-81
2024/03/01 10:25:21;;;;;;;48.58;29.27;;;;;;;;;;10069229;28;20049;-77
2024/03/01 10:30:18;;;;;;;47.17;34.08;;;;;;;;;;10057567;28;20053;-80
2024/03/01 10:35:20;;;;;;;66.05;35.80;;;;;;;;;;10069008;28;20056;-81
2024/03/01 10:40:37;;;;;;;38.78;27.55;;;;;;;;;;10068008;28;20083;-83
2024/03/01 10:45:39;;;;;;;44.97;29.30;;;;;;;;;;10067644;28;20062;-79
2024/03/01 10:50:39;;;;;;;38.42;26.75;;;;;;;;;;10065874;28;20509;-78
2024/03/01 10:55:42;;;;;;;50.50;28.35;;;;;;;;;;10067341;28;20060;-80
2024/03/01 11:00:59;;;;;;;51.00;31.83;;;;;;;;;;10060125;28;20049;-80
2024/03/01 11:06:04;;;;;;;61.60;32.03;;;;;;;;;;10066472;28;20099;-79
2024/03/01 11:11:10;;;;;;;52.17;28.95;;;;;;;;;;10066427;28;20061;-80
2024/03/01 11:16:07;;;;;;;46.72;26.52;;;;;;;;;;10065854;28;20084;-79
2024/03/01 11:21:12;;;;;;;36.70;24.73;;;;;;;;;;10067008;28;20067;-79
2024/03/01 11:26:11;;;;;;;39.72;24.70;;;;;;;;;;10066762;28;20103;-78
2024/03/01 11:31:21;;;;;;;36.85;21.90;;;;;;;;;;10041988;28;20053;-78
2024/03/01 11:36:31;;;;;;;35.35;21.10;;;;;;;;;;10040092;28;20135;-79
2024/03/01 11:41:40;;;;;;;30.63;18.83;;;;;;;;;;10066119;28;20053;-79
2024/03/01 11:47:06;;;;;;;29.10;20.10;;;;;;;;;;10055023;28;20136;-77
2024/03/01 11:52:30;;;;;;;37.20;24.98;;;;;;;;;;10064354;28;20057;-76
2024/03/01 11:57:35;;;;;;;34.45;23.08;;;;;;;;;;10065693;28;20049;-78
2024/03/01 12:02:31;;;;;;;32.60;22.48;;;;;;;;;;10058410;28;20060;-76
2024/03/01 12:07:54;;;;;;;28.77;17.40;;;;;;;;;;10050154;28;20050;-77
2024/03/01 12:12:47;;;;;;;26.42;17.95;;;;;;;;;;10056012;28;20520;-76
2024/03/01 12:17:55;;;;;;;34.78;20.30;;;;;;;;;;10031869;28;20568;-76
2024/03/01 12:23:02;;;;;;;38.97;21.55;;;;;;;;;;10054786;28;20064;-76
2024/03/01 12:28:08;;;;;;;46.25;23.30;;;;;;;;;;10063174;28;20053;-75
2024/03/01 12:33:40;;;;;;;36.70;24.50;;;;;;;;;;10060891;28;20144;-75
2024/03/01 12:38:44;;;;;;;46.13;25.17;;;;;;;;;;10066307;28;20156;-76
2024/03/01 12:43:46;;;;;;;37.17;24.15;;;;;;;;;;10045472;28;20057;-76
2024/03/01 12:49:01;;;;;;;46.67;24.88;;;;;;;;;;10062789;28;20104;-76
2024/03/01 12:54:07;;;;;;;43.17;26.00;;;;;;;;;;10062308;28;20068;-76
2024/03/01 12:59:16;;;;;;;39.58;25.00;;;;;;;;;;10059168;28;20145;-76
2024/03/01 13:04:11;;;;;;;44.67;26.98;;;;;;;;;;10061871;28;20049;-76
2024/03/01 13:09:30;;;;;;;42.88;26.85;;;;;;;;;;10062388;28;20045;-76
2024/03/01 13:14:56;;;;;;;42.13;27.83;;;;;;;;;;10062913;28;20145;-76
2024/03/01 13:20:23;;;;;;;41.67;26.25;;;;;;;;;;10069476;28;20045;-77
2024/03/01 13:25:55;;;;;;;58.03;27.80;;;;;;;;;;10068036;28;20061;-77
2024/03/01 13:30:50;;;;;;;40.78;29.13;;;;;;;;;;10066704;28;20509;-77
2024/03/01 13:35:48;;;;;;;41.90;28.17;;;;;;;;;;10065300;28;20458;-76
2024/03/01 13:40:50;;;;;;;43.72;27.98;;;;;;;;;;10069100;28;20089;-76
2024/03/01 13:45:44;;;;;;;47.63;28.27;;;;;;;;;;10069197;28;20073;-77
2024/03/01 13:50:39;;;;;;;41.08;26.40;;;;;;;;;;10056903;28;20144;-77
2024/03/01 13:55:37;;;;;;;37.83;23.38;;;;;;;;;;10067462;28;20053;-76
2024/03/01 14:00:33;;;;;;;39.83;28.73;;;;;;;;;;10059225;28;20529;-76
2024/03/01 14:05:28;;;;;;;47.35;32.83;;;;;;;;;;10058003;28;20050;-75
2024/03/01 14:10:22;;;;;;;33.95;25.65;;;;;;;;;;10061418;28;20084;-76
2024/03/01 14:15:17;;;;;;;35.63;21.45;;;;;;;;;;10067792;28;20123;-77
2024/03/01 14:20:17;;;;;;;27.85;17.02;;;;;;;;;;10067170;28;20057;-76
2024/03/01 14:25:17;;;;;;;27.80;15.90;;;;;;;;;;10066039;28;20050;-76
2024/03/01 14:30:15;;;;;;;25.17;15.55;;;;;;;;;;10067606;28;20413;-77
2024/03/01 14:35:24;;;;;;;22.02;13.48;;;;;;;;;;10064879;28;20136;-76
2024/03/01 14:40:19;;;;;;;20.45;12.82;;;;;;;;;;10067586;28;20835;-76
2024/03/01 14:45:23;;;;;;;20.92;12.30;;;;;;;;;;10067041;28;20048;-76
2024/03/01 14:50:28;;;;;;;16.67;9.32;;;;;;;;;;10066847;28;20442;-76
2024/03/01 14:55:23;;;;;;;16.42;10.57;;;;;;;;;;10059425;28;20053;-76
2024/03/01 15:00:20;;;;;;;22.05;9.55;;;;;;;;;;10062686;28;20064;-76
2024/03/01 15:05:15;;;;;;;18.08;8.50;;;;;;;;;;10054208;28;20136;-76
2024/03/01 15:10:10;;;;;;;14.90;8.25;;;;;;;;;;10065911;28;20034;-76
2024/03/01 15:15:09;;;;;;;14.50;5.60;;;;;;;;;;10056999;28;20107;-79
2024/03/01 15:20:05;;;;;;;;;;;;;;;;;;10064995;28;20092;-77
2024/03/01 15:25:11;;;;;;;15.00;6.97;;;;;;;;;;10058911;28;20388;-78
2024/03/01 15:30:08;;;;;;;13.20;6.63;;;;;;;;;;10055778;28;20131;-77
2024/03/01 15:35:02;;;;;;;11.15;7.97;;;;;;;;;;10060309;28;20107;-77
2024/03/01 15:39:57;;;;;;;13.77;8.88;;;;;;;;;;10064643;28;20088;-78
2024/03/01 15:44:52;;;;;;;17.63;9.23;;;;;;;;;;10045260;28;20050;-79
2024/03/01 15:49:46;;;;;;;16.65;9.85;;;;;;;;;;10051512;28;20091;-79
2024/03/01 15:54:42;;;;;;;19.65;10.55;;;;;;;;;;10052475;28;20148;-79
2024/03/01 15:59:37;;;;;;;20.13;11.65;;;;;;;;;;10059570;28;20064;-76
2024/03/01 16:04:32;;;;;;;17.25;11.57;;;;;;;;;;10053253;28;20408;-79
2024/03/01 16:09:31;;;;;;;15.48;10.93;;;;;;;;;;10062778;28;20103;-79
2024/03/01 16:14:26;;;;;;;19.93;10.63;;;;;;;;;;10058682;28;20512;-76
2024/03/01 16:19:20;;;;;;;16.42;8.45;;;;;;;;;;10063505;28;20404;-79
2024/03/01 16:24:15;;;;;;;16.15;9.05;;;;;;;;;;10049895;28;20421;-77
2024/03/01 16:29:10;;;;;;;16.48;9.90;;;;;;;;;;10062722;28;20144;-78
2024/03/01 16:34:04;;;;;;;14.23;10.30;;;;;;;;;;10049596;28;20061;-78
2024/03/01 16:39:00;;;;;;;20.90;8.98;;;;;;;;;;10063008;28;20081;-78
2024/03/01 16:43:54;;;;;;;16.38;9.10;;;;;;;;;;10058916;28;20156;-77
2024/03/01 16:48:52;;;;;;;25.50;11.05;;;;;;;;;;10068093;28;20386;-76
2024/03/01 16:53:48;;;;;;;17.13;9.63;;;;;;;;;;10063839;28;20457;-76
2024/03/01 16:58:43;;;;;;;28.45;14.18;;;;;;;;;;10067666;28;20082;-75
2024/03/01 17:03:45;;;;;;;27.35;18.13;;;;;;;;;;10064268;28;20050;-75
2024/03/01 17:08:42;;;;;;;37.65;23.58;;;;;;;;;;10070075;28;20045;-78
2024/03/01 17:13:36;;;;;;;36.78;22.58;;;;;;;;;;10060867;28;20445;-77
2024/03/01 17:18:32;;;;;;;27.13;17.88;;;;;;;;;;10068491;28;20058;-77
2024/03/01 17:23:26;;;;;;;27.58;15.07;;;;;;;;;;10064361;28;20152;-76
2024/03/01 17:28:20;;;;;;;24.80;14.65;;;;;;;;;;10069253;28;20061;-76
2024/03/01 17:33:14;;;;;;;25.10;18.10;;;;;;;;;;10068338;28;20499;-76
2024/03/01 17:38:08;;;;;;;31.15;21.25;;;;;;;;;;10060889;28;20119;-76
2024/03/01 17:43:04;;;;;;;26.88;13.73;;;;;;;;;;10067752;28;20053;-76
2024/03/01 17:47:57;;;;;;;23.67;14.25;;;;;;;;;;10055737;28;20058;-78
2024/03/01 17:52:51;;;;;;;24.00;13.13;;;;;;;;;;10068801;28;20162;-78
2024/03/01 17:57:45;;;;;;;21.17;13.48;;;;;;;;;;10061386;28;20433;-78
2024/03/01 18:02:39;;;;;;;22.73;14.07;;;;;;;;;;10056418;28;20058;-78
2024/03/01 18:07:34;;;;;;;23.35;15.60;;;;;;;;;;10060312;28;20057;-77
2024/03/01 18:12:29;;;;;;;23.05;13.25;;;;;;;;;;10059719;28;20045;-78
2024/03/01 18:17:23;;;;;;;15.73;13.02;;;;;;;;;;10049422;28;20068;-78
2024/03/01 18:22:17;;;;;;;22.10;13.90;;;;;;;;;;10063224;28;20115;-79
2024/03/01 18:27:11;;;;;;;27.98;13.07;;;;;;;;;;10051522;28;20516;-77
2024/03/01 18:32:06;;;;;;;25.15;15.25;;;;;;;;;;10060614;28;20042;-80
2024/03/01 18:37:00;;;;;;;27.15;14.00;;;;;;;;;;10055521;28;20046;-82
2024/03/01 18:41:54;;;;;;;26.95;13.57;;;;;;;;;;10063205;28;20037;-80
2024/03/01 18:46:48;;;;;;;29.95;12.77;;;;;;;;;;10054770;28;20538;-79
2024/03/01 18:51:44;;;;;;;18.10;12.10;;;;;;;;;;10062290;28;20053;-83
2024/03/01 18:56:38;;;;;;;25.17;17.15;;;;;;;;;;10052609;28;20053;-85
2024/03/01 19:01:33;;;;;;;38.83;21.92;;;;;;;;;;10062464;28;20120;-83
2024/03/01 19:06:27;;;;;;;31.75;20.05;;;;;;;;;;10064637;28;20057;-81
2024/03/01 19:11:21;;;;;;;33.15;16.85;;;;;;;;;;10065947;28;20064;-82
2024/03/01 19:16:16;;;;;;;30.00;18.70;;;;;;;;;;10049667;28;20086;-82
2024/03/01 19:21:12;;;;;;;34.85;17.23;;;;;;;;;;10060212;28;20053;-83
2024/03/01 19:26:06;;;;;;;29.00;17.13;;;;;;;;;;10053972;28;20150;-80
2024/03/01 19:31:00;;;;;;;24.70;15.93;;;;;;;;;;10059040;28;20084;-86
2024/03/01 19:35:54;;;;;;;40.03;21.52;;;;;;;;;;10059433;28;20099;-82
2024/03/01 19:40:52;;;;;;;36.75;16.75;;;;;;;;;;10054888;28;20416;-83
2024/03/01 19:45:47;;;;;;;25.08;10.52;;;;;;;;;;10063045;28;20144;-82
2024/03/01 19:50:40;;;;;;;20.65;11.48;;;;;;;;;;10053873;28;20052;-82
2024/03/01 19:55:35;;;;;;;21.33;10.25;;;;;;;;;;10051613;28;20042;-85
2024/03/01 20:00:38;;;;;;;21.48;8.48;;;;;;;;;;10043157;28;20065;-87
2024/03/01 20:05:32;;;;;;;17.08;9.30;;;;;;;;;;10041268;28;20141;-82
2024/03/01 20:10:26;;;;;;;20.38;8.73;;;;;;;;;;10058536;28;20416;-88
2024/03/01 20:15:21;;;;;;;26.02;8.18;;;;;;;;;;10053162;28;20425;-86
2024/03/01 20:20:16;;;;;;;20.13;7.88;;;;;;;;;;10055586;28;20153;-86
2024/03/01 20:25:10;;;;;;;22.30;9.07;;;;;;;;;;10059841;28;20053;-84
2024/03/01 20:30:06;;;;;;;19.88;9.65;;;;;;;;;;10051815;28;20077;-83
2024/03/01 20:34:59;;;;;;;27.80;9.48;;;;;;;;;;10052615;28;20057;-84
2024/03/01 20:39:53;;;;;;;32.38;9.63;;;;;;;;;;10039456;28;20065;-84
2024/03/01 20:44:48;;;;;;;25.38;10.70;;;;;;;;;;10064039;28;20053;-85
2024/03/01 20:49:42;;;;;;;25.73;11.02;;;;;;;;;;10048105;28;20050;-83
2024/03/01 20:54:37;;;;;;;39.13;10.48;;;;;;;;;;10053327;28;20045;-86
2024/03/01 20:59:31;;;;;;;26.75;11.75;;;;;;;;;;10049550;28;20552;-82
2024/03/01 21:04:26;;;;;;;21.70;12.18;;;;;;;;;;10055915;28;20064;-87
2024/03/01 21:09:20;;;;;;;27.38;16.42;;;;;;;;;;10051564;28;20046;-87
2024/03/01 21:14:14;;;;;;;22.75;13.60;;;;;;;;;;10063160;28;20108;-84
2024/03/01 21:19:08;;;;;;;22.35;13.00;;;;;;;;;;10040333;28;20103;-82
2024/03/01 21:24:04;;;;;;;31.17;12.45;;;;;;;;;;10049319;28;20196;-83
2024/03/01 21:28:58;;;;;;;27.48;14.57;;;;;;;;;;10051454;28;20050;-83
2024/03/01 21:33:52;;;;;;;29.45;12.77;;;;;;;;;;10065856;28;20416;-85
2024/03/01 21:38:47;;;;;;;22.70;14.23;;;;;;;;;;10061448;28;20065;-84
2024/03/01 21:43:45;;;;;;;19.92;12.73;;;;;;;;;;10068711;28;20493;-88
2024/03/01 21:48:40;;;;;;;23.77;15.10;;;;;;;;;;10061799;28;20045;-87
2024/03/01 21:53:35;;;;;;;28.33;15.80;;;;;;;;;;10065587;28;20054;-86
2024/03/01 21:58:30;;;;;;;28.88;18.38;;;;;;;;;;10060247;28;20092;-89
2024/03/01 22:03:25;;;;;;;28.50;18.08;;;;;;;;;;10064900;28;20049;-81
2024/03/01 22:08:19;;;;;;;34.22;19.60;;;;;;;;;;10055937;28;20083;-83
2024/03/01 22:13:14;;;;;;;31.73;19.83;;;;;;;;;;10066853;28;20037;-88
2024/03/01 22:18:10;;;;;;;30.02;19.85;;;;;;;;;;10060051;28;20484;-82
2024/03/01 22:23:05;;;;;;;33.53;18.00;;;;;;;;;;10061418;28;20058;-83
2024/03/01 22:27:58;;;;;;;35.10;19.30;;;;;;;;;;10065260;28;20076;-86
2024/03/01 22:32:53;;;;;;;29.65;16.58;;;;;;;;;;10050200;28;20050;-85
2024/03/01 22:37:48;;;;;;;26.35;15.65;;;;;;;;;;10045916;28;20037;-88
2024/03/01 22:42:44;;;;;;;33.10;16.98;;;;;;;;;;10059483;28;20046;-90
2024/03/01 22:47:38;;;;;;;28.67;17.27;;;;;;;;;;10042604;28;20038;-93
2024/03/01 22:52:37;;;;;;;25.13;15.43;;;;;;;;;;10056984;28;20497;-92
2024/03/01 22:57:39;;;;;;;31.45;15.75;;;;;;;;;;10060430;28;20046;-90
2024/03/01 23:02:34;;;;;;;21.00;14.60;;;;;;;;;;10063210;28;20053;-88
2024/03/01 23:07:29;;;;;;;27.60;16.75;;;;;;;;;;10055187;28;20084;-87
2024/03/01 23:12:27;;;;;;;23.13;16.67;;;;;;;;;;10065354;28;20053;-86
2024/03/01 23:17:22;;;;;;;20.08;16.13;;;;;;;;;;10066062;28;20080;-85
2024/03/01 23:22:20;;;;;;;22.83;16.58;;;;;;;;;;10068383;28;20084;-87
2024/03/01 23:27:14;;;;;;;22.73;17.03;;;;;;;;;;10044044;28;20053;-88
2024/03/01 23:32:10;;;;;;;25.92;19.42;;;;;;;;;;10055078;28;20072;-82
2024/03/01 23:37:03;;;;;;;21.58;19.20;;;;;;;;;;10047442;28;20596;-85
2024/03/01 23:41:58;;;;;;;27.42;18.52;;;;;;;;;;10044969;28;20156;-85
2024/03/01 23:46:52;;;;;;;23.55;18.73;;;;;;;;;;10060935;28;20463;-89
2024/03/01 23:51:47;;;;;;;25.20;19.15;;;;;;;;;;10061967;28;20046;-86
2024/03/01 23:56:43;;;;;;;23.85;19.60;;;;;;;;;;10062697;28;20128;-92
